createdAt,value
2018-09-12T00:00:46.191Z,97104.34
2018-09-12T00:03:15.602Z,97098.97
2018-09-12T00:05:44.064Z,97095.46
2018-09-12T00:08:12.472Z,97097.54
2018-09-12T00:10:40.839Z,97098.97
2018-09-12T00:13:09.284Z,97102.59
2018-09-12T00:15:37.699Z,97095.78
2018-09-12T00:18:06.296Z,97100.14
2018-09-12T00:20:34.675Z,97096.44
2018-09-12T00:23:03.037Z,97093.88
2018-09-12T00:25:31.417Z,97087.69
2018-09-12T00:28:00.599Z,97087.20
2018-09-12T00:30:28.916Z,97086.27
2018-09-12T00:32:57.263Z,97084.63
2018-09-12T00:35:25.706Z,97082.56
2018-09-12T00:37:54.041Z,97082.87
2018-09-12T00:40:22.410Z,97083.09
2018-09-12T00:42:50.815Z,97085.39
2018-09-12T00:45:19.164Z,97077.13
2018-09-12T00:47:47.548Z,97084.46
2018-09-12T00:50:15.959Z,97084.55
2018-09-12T00:52:44.769Z,97081.77
2018-09-12T00:55:13.075Z,97077.54
2018-09-12T00:57:41.488Z,97081.80
2018-09-12T01:00:09.860Z,97074.77
2018-09-12T01:02:38.216Z,97076.02
2018-09-12T03:19:21.252Z,96971.64
2018-09-12T03:21:50.140Z,96966.28
2018-09-12T03:24:18.538Z,96963.83
2018-09-12T03:26:47.028Z,96959.69
2018-09-12T03:29:15.366Z,96965.56
2018-09-12T03:31:43.737Z,96957.00
2018-09-12T03:34:12.108Z,96957.72
2018-09-12T03:36:40.496Z,96944.23
2018-09-12T03:39:10.968Z,96941.55
2018-09-12T03:41:39.900Z,96949.78
2018-09-12T03:44:08.736Z,96946.29
2018-09-12T03:46:37.061Z,96942.80
2018-09-12T03:49:05.848Z,96937.83
2018-09-12T03:51:34.452Z,96937.20
2018-09-12T03:54:02.889Z,96935.77
2018-09-12T03:56:31.253Z,96935.25
2018-09-12T03:58:59.585Z,96929.56
2018-09-12T04:01:28.080Z,96944.83
2018-09-12T04:03:56.527Z,96931.75
2018-09-12T04:06:24.868Z,96923.59
2018-09-12T04:08:53.301Z,96919.80
2018-09-12T04:11:21.877Z,96921.53
2018-09-12T04:13:50.321Z,96921.44
2018-09-12T04:16:18.751Z,96919.14
2018-09-12T04:18:47.269Z,96915.33
2018-09-12T04:21:15.589Z,96915.52
2018-09-12T04:23:43.977Z,96909.05
2018-09-12T04:26:12.557Z,96919.77
2018-09-12T04:28:40.952Z,96908.01
2018-09-12T04:31:09.385Z,96916.86
2018-09-12T04:33:37.997Z,96912.91
2018-09-12T04:36:06.332Z,96910.45
2018-09-12T04:38:34.658Z,96910.95
2018-09-12T04:41:03.240Z,96921.16
2018-09-12T04:43:31.608Z,96915.19
2018-09-12T04:45:59.948Z,96917.54
2018-09-12T04:48:28.341Z,96915.19
2018-09-12T04:50:56.653Z,96919.50
2018-09-12T04:53:25.728Z,96911.17
2018-09-12T04:55:54.156Z,96904.34
2018-09-12T04:58:22.529Z,96916.39
2018-09-12T05:00:51.471Z,96920.41
2018-09-12T05:03:20.494Z,96916.09
2018-09-12T05:05:48.825Z,96924.13
2018-09-12T05:08:17.249Z,96934.22
2018-09-12T05:10:45.819Z,96934.41
2018-09-12T05:13:14.144Z,96931.11
2018-09-12T05:15:42.568Z,96926.99
2018-09-12T05:18:11.009Z,96939.53
2018-09-12T05:20:39.436Z,96930.48
2018-09-12T05:23:07.823Z,96939.86
2018-09-12T05:25:36.205Z,96927.48
2018-09-12T05:28:04.604Z,96931.11
2018-09-12T05:30:32.967Z,96930.30
2018-09-12T05:33:01.360Z,96929.67
2018-09-12T05:35:29.712Z,96929.45
2018-09-12T05:37:58.188Z,96927.09
2018-09-12T05:40:26.572Z,96925.23
2018-09-12T05:42:54.953Z,96924.52
2018-09-12T05:45:23.268Z,96925.66
2018-09-12T05:47:51.711Z,96919.78
2018-09-12T05:50:20.101Z,96926.48
2018-09-12T05:52:48.743Z,96922.37
2018-09-12T05:55:17.406Z,96918.16
2018-09-12T05:57:45.937Z,96925.80
2018-09-12T06:00:14.454Z,96930.44
2018-09-12T06:02:42.870Z,96937.34
2018-09-12T06:05:11.296Z,96934.79
2018-09-12T06:07:39.656Z,96942.02
2018-09-12T06:10:08.235Z,96926.98
2018-09-12T06:12:36.664Z,96934.41
2018-09-12T06:15:05.272Z,96939.27
2018-09-12T06:17:33.880Z,96933.09
2018-09-12T06:20:02.281Z,96927.63
2018-09-12T06:22:30.921Z,96938.24
2018-09-12T06:24:59.578Z,96933.92
2018-09-12T06:27:28.050Z,96930.65
2018-09-12T06:29:56.499Z,96938.59
2018-09-12T06:32:25.153Z,96938.78
2018-09-12T06:34:53.544Z,96932.20
2018-09-12T06:37:21.960Z,96931.34
2018-09-12T06:39:50.413Z,96933.02
2018-09-12T06:42:18.803Z,96943.63
2018-09-12T06:44:47.257Z,96937.67
2018-09-12T06:47:15.858Z,96934.80
2018-09-12T06:49:47.224Z,96936.34
2018-09-12T06:52:17.241Z,96935.22
2018-09-12T06:54:45.650Z,96929.42
2018-09-12T06:57:14.165Z,96935.20
2018-09-12T06:59:42.835Z,96928.09
2018-09-12T07:02:11.260Z,96923.77
2018-09-12T07:04:39.644Z,96928.90
2018-09-12T07:07:08.212Z,96931.56
2018-09-12T07:09:36.607Z,96932.58
2018-09-12T07:12:05.606Z,96943.81
2018-09-12T07:14:34.017Z,96937.31
2018-09-12T07:17:02.396Z,96933.98
2018-09-12T07:19:30.921Z,96928.00
2018-09-12T07:21:59.718Z,96944.08
2018-09-12T07:24:28.120Z,96940.55
2018-09-12T07:26:56.492Z,96932.69
2018-09-12T07:29:25.130Z,96928.56
2018-09-12T07:31:53.485Z,96932.27
2018-09-12T07:34:22.106Z,96936.58
2018-09-12T07:36:50.588Z,96928.48
2018-09-12T07:39:18.999Z,96941.36
2018-09-12T07:41:47.412Z,96942.70
2018-09-12T07:44:16.037Z,96938.94
2018-09-12T07:46:44.373Z,96941.78
2018-09-12T07:49:12.715Z,96956.43
2018-09-12T07:51:41.233Z,96952.06
2018-09-12T07:54:09.681Z,96950.38
2018-09-12T07:56:38.043Z,96950.86
2018-09-12T07:59:06.625Z,96955.47
2018-09-12T08:01:35.011Z,96961.53
2018-09-12T08:04:03.395Z,96957.07
2018-09-12T08:06:31.967Z,96955.70
2018-09-12T08:09:00.398Z,96958.64
2018-09-12T08:11:28.835Z,96957.34
2018-09-12T08:13:57.251Z,96959.97
2018-09-12T08:16:25.579Z,96965.52
2018-09-12T08:18:54.010Z,96961.88
2018-09-12T08:21:22.454Z,96960.78
2018-09-12T08:23:50.772Z,96962.76
2018-09-12T08:26:19.237Z,96956.12
2018-09-12T08:28:48.368Z,96953.52
2018-09-12T08:31:16.695Z,96963.88
2018-09-12T08:33:45.275Z,96951.77
2018-09-12T08:36:13.853Z,96960.89
2018-09-12T08:38:42.311Z,96956.86
2018-09-12T08:41:10.711Z,96968.23
2018-09-12T08:43:39.274Z,96978.48
2018-09-12T08:46:07.867Z,96975.09
2018-09-12T08:48:36.451Z,96969.77
2018-09-12T08:51:05.008Z,96973.69
2018-09-12T08:53:33.418Z,96974.34
2018-09-12T08:56:01.748Z,96974.24
2018-09-12T08:58:30.315Z,96972.10
2018-09-12T09:00:58.649Z,96975.28
2018-09-12T09:03:26.995Z,96972.29
2018-09-12T09:05:56.786Z,96974.94
2018-09-12T09:08:25.147Z,96988.29
2018-09-12T09:10:53.508Z,96985.34
2018-09-12T09:13:22.007Z,96986.30
2018-09-12T09:15:50.457Z,96990.85
2018-09-12T09:18:18.798Z,96987.81
2018-09-12T09:20:47.239Z,96988.28
2018-09-12T09:23:15.588Z,96989.32
2018-09-12T09:25:43.973Z,96989.82
2018-09-12T09:28:12.341Z,96986.55
2018-09-12T09:30:40.680Z,96986.81
2018-09-12T09:33:09.116Z,96986.91
2018-09-12T09:35:37.695Z,96983.62
2018-09-12T09:38:06.268Z,96985.04
2018-09-12T09:40:34.604Z,96983.59
2018-09-12T09:43:03.122Z,96989.94
2018-09-12T09:45:31.448Z,96985.27
2018-09-12T09:47:59.972Z,96976.86
2018-09-12T09:50:28.464Z,96965.71
2018-09-12T09:52:56.820Z,96955.09
2018-09-12T09:55:25.156Z,96956.16
2018-09-12T09:57:53.544Z,96956.95
2018-09-12T10:00:27.228Z,96951.79
2018-09-12T10:03:00.924Z,96952.57
2018-09-12T10:05:34.673Z,96947.56
2018-09-12T10:08:08.315Z,96951.79
2018-09-12T10:10:36.659Z,96944.67
2018-09-12T10:13:05.099Z,96955.66
2018-09-12T10:15:33.648Z,96952.80
2018-09-12T10:18:02.020Z,96943.71
2018-09-12T10:20:30.659Z,96944.16
2018-09-12T10:22:59.049Z,96942.08
2018-09-12T10:25:27.545Z,96944.11
2018-09-12T10:27:55.951Z,96943.70
2018-09-12T10:30:24.369Z,96940.02
2018-09-12T10:32:52.715Z,96937.98
2018-09-12T10:35:21.071Z,96943.82
2018-09-12T10:37:49.524Z,96937.98
2018-09-12T10:40:17.947Z,96938.64
2018-09-12T10:42:46.280Z,96933.06
2018-09-12T10:45:14.788Z,96937.52
2018-09-12T10:47:43.259Z,96938.36
2018-09-12T10:50:11.663Z,96935.17
2018-09-12T10:52:40.143Z,96931.18
2018-09-12T10:55:08.613Z,96925.33
2018-09-12T10:57:37.071Z,96927.82
2018-09-12T11:00:07.322Z,96913.00
2018-09-12T11:02:35.723Z,96913.61
2018-09-12T11:05:04.135Z,96912.59
2018-09-12T11:07:32.763Z,96910.23
2018-09-12T11:10:01.128Z,96902.70
2018-09-12T11:12:29.527Z,96904.92
2018-09-12T11:14:57.899Z,96898.48
2018-09-12T11:17:26.300Z,96898.23
2018-09-12T11:19:54.767Z,96888.27
2018-09-12T11:22:24.435Z,96885.03
2018-09-12T11:24:52.798Z,96882.36
2018-09-12T11:27:21.404Z,96877.22
2018-09-12T11:29:49.813Z,96876.16
2018-09-12T11:32:18.196Z,96878.88
2018-09-12T11:34:46.567Z,96868.33
2018-09-12T11:37:14.947Z,96871.86
2018-09-12T11:39:43.327Z,96866.74
2018-09-12T11:42:12.023Z,96863.77
2018-09-12T11:44:40.383Z,96864.05
2018-09-12T11:47:08.792Z,96859.48
2018-09-12T11:49:37.271Z,96851.34
2018-09-12T11:52:05.675Z,96854.35
2018-09-12T11:54:34.212Z,96848.38
2018-09-12T11:57:02.557Z,96845.68
2018-09-12T11:59:30.996Z,96845.41
2018-09-12T12:01:59.456Z,96846.80
2018-09-12T12:04:27.932Z,96849.50
2018-09-12T12:06:56.339Z,96841.90
2018-09-12T12:09:24.683Z,96839.73
2018-09-12T12:11:53.167Z,96837.55
2018-09-12T12:14:21.692Z,96836.46
2018-09-12T12:16:50.153Z,96830.51
2018-09-12T12:19:18.516Z,96823.98
2018-09-12T12:21:46.909Z,96822.08
2018-09-12T12:24:15.264Z,96811.97
2018-09-12T12:26:43.664Z,96811.43
2018-09-12T12:29:12.228Z,96811.42
2018-09-12T12:31:40.613Z,96801.05
2018-09-12T12:34:08.964Z,96793.69
2018-09-12T12:36:37.471Z,96798.33
2018-09-12T12:39:08.650Z,96802.40
2018-09-12T12:41:37.107Z,96790.41
2018-09-12T12:44:05.549Z,96783.31
2018-09-12T12:46:33.954Z,96791.16
2018-09-12T12:49:02.397Z,96785.67
2018-09-12T12:51:30.968Z,96781.25
2018-09-12T12:53:59.387Z,96773.31
2018-09-12T12:56:27.768Z,96765.39
2018-09-12T12:58:56.149Z,96762.06
2018-09-12T13:01:24.567Z,96763.16
2018-09-12T13:03:52.908Z,96760.91
2018-09-12T13:06:21.252Z,96760.53
2018-09-12T13:08:49.668Z,96754.16
2018-09-12T13:11:19.373Z,96747.52
2018-09-12T13:13:47.908Z,96743.70
2018-09-12T13:16:16.272Z,96743.08
2018-09-12T13:18:48.988Z,96735.66
2018-09-12T13:21:17.503Z,96735.10
2018-09-12T13:23:45.943Z,96736.67
2018-09-12T13:26:14.293Z,96733.84
2018-09-12T13:28:42.773Z,96730.81
2018-09-12T13:31:11.215Z,96723.11
2018-09-12T13:33:42.265Z,96726.41
2018-09-12T13:36:11.183Z,96724.44
2018-09-12T13:38:39.528Z,96717.00
2018-09-12T13:41:08.928Z,96707.36
2018-09-12T13:43:38.325Z,96707.25
2018-09-12T13:46:06.920Z,96705.75
2018-09-12T13:48:35.292Z,96701.84
2018-09-12T13:51:03.715Z,96689.77
2018-09-12T13:53:32.148Z,96694.06
2018-09-12T13:56:00.500Z,96694.86
2018-09-12T13:58:40.847Z,96693.30
2018-09-12T14:01:09.219Z,96690.34
2018-09-12T14:03:37.627Z,96687.31
2018-09-12T14:06:05.996Z,96680.25
2018-09-12T14:08:34.318Z,96680.54
2018-09-12T14:11:02.688Z,96676.16
2018-09-12T14:13:31.073Z,96679.41
2018-09-12T14:16:03.248Z,96679.45
2018-09-12T14:18:31.862Z,96675.07
2018-09-12T14:21:00.220Z,96674.18
2018-09-12T14:23:28.663Z,96672.70
2018-09-12T14:25:57.047Z,96673.73
2018-09-12T14:28:25.391Z,96660.86
2018-09-12T14:30:53.863Z,96659.45
2018-09-12T14:33:22.271Z,96661.38
2018-09-12T14:35:51.126Z,96653.62
2018-09-12T14:38:21.237Z,96656.06
2018-09-12T14:40:49.859Z,96653.80
2018-09-12T14:43:18.244Z,96653.22
2018-09-12T14:45:46.597Z,96649.36
2018-09-12T14:48:15.204Z,96648.00
2018-09-12T14:50:43.625Z,96640.92
2018-09-12T14:53:12.876Z,96639.28
2018-09-12T14:55:41.578Z,96638.77
2018-09-12T14:58:10.696Z,96643.94
2018-09-12T15:00:39.428Z,96634.03
2018-09-12T15:03:07.868Z,96631.77
2018-09-12T15:05:36.332Z,96627.66
2018-09-12T15:08:05.260Z,96625.19
2018-09-12T15:10:33.960Z,96625.46
2018-09-12T15:13:02.283Z,96621.09
2018-09-12T15:15:30.611Z,96616.98
2018-09-12T15:17:59.345Z,96613.98
2018-09-12T15:20:27.720Z,96616.48
2018-09-12T15:22:56.107Z,96615.68
2018-09-12T15:25:25.935Z,96613.48
2018-09-12T15:27:54.297Z,96609.70
2018-09-12T15:30:22.651Z,96608.63
2018-09-12T15:32:51.067Z,96603.20
2018-09-12T15:35:19.397Z,96594.45
2018-09-12T15:37:47.728Z,96589.31
2018-09-12T15:40:16.231Z,96595.88
2018-09-12T15:42:44.551Z,96598.89
2018-09-12T15:45:14.285Z,96589.10
2018-09-12T15:47:43.219Z,96591.37
2018-09-12T15:50:11.559Z,96593.36
2018-09-12T15:52:39.989Z,96597.80
2018-09-12T15:55:08.368Z,96594.07
2018-09-12T15:57:37.905Z,96593.28
2018-09-12T16:00:07.293Z,96597.95
2018-09-12T16:02:35.671Z,96592.58
2018-09-12T16:05:05.405Z,96593.96
2018-09-12T16:07:33.765Z,96588.27
2018-09-12T16:10:02.185Z,96579.03
2018-09-12T16:12:31.797Z,96573.88
2018-09-12T16:15:00.148Z,96569.30
2018-09-12T16:17:28.616Z,96576.50
2018-09-12T16:19:57.408Z,96573.88
2018-09-12T16:22:25.752Z,96563.89
2018-09-12T16:24:54.220Z,96564.83
2018-09-12T16:27:23.495Z,96558.66
2018-09-12T16:29:51.995Z,96557.94
2018-09-12T16:32:20.348Z,96563.27
2018-09-12T16:34:48.688Z,96558.53
2018-09-12T16:37:17.052Z,96551.54
2018-09-12T16:39:46.436Z,96557.09
2018-09-12T16:42:14.764Z,96556.59
2018-09-12T16:44:43.448Z,96560.47
2018-09-12T16:47:11.822Z,96561.61
2018-09-12T16:49:40.155Z,96561.92
2018-09-12T16:52:08.480Z,96564.42
2018-09-12T16:54:36.944Z,96556.83
2018-09-12T16:57:05.298Z,96555.77
2018-09-12T16:59:33.636Z,96550.91
2018-09-12T17:02:02.028Z,96555.27
2018-09-12T17:04:30.480Z,96556.90
2018-09-12T17:06:58.883Z,96558.03
2018-09-12T17:09:27.345Z,96552.10
2018-09-12T17:11:55.687Z,96545.88
2018-09-12T17:14:24.046Z,96549.17
2018-09-12T17:16:52.539Z,96542.13
2018-09-12T17:19:20.868Z,96549.50
2018-09-12T17:21:49.557Z,96546.02
2018-09-12T17:24:18.655Z,96544.12
2018-09-12T17:26:46.981Z,96540.11
2018-09-12T17:29:15.314Z,96539.85
2018-09-12T17:31:44.408Z,96534.72
2018-09-12T17:34:12.744Z,96535.56
2018-09-12T17:36:41.082Z,96533.70
2018-09-12T17:39:10.516Z,96537.22
2018-09-12T17:41:39.068Z,96536.94
2018-09-12T17:44:07.664Z,96539.11
2018-09-12T17:46:36.032Z,96536.42
2018-09-12T17:49:04.705Z,96529.09
2018-09-12T17:51:33.140Z,96531.55
2018-09-12T17:54:01.708Z,96528.54
2018-09-12T17:56:30.145Z,96528.78
2018-09-12T17:58:58.592Z,96533.09
2018-09-12T18:01:27.119Z,96535.25
2018-09-12T18:03:55.571Z,96535.23
2018-09-12T18:06:24.026Z,96533.31
2018-09-12T18:08:52.932Z,96536.77
2018-09-12T18:11:21.450Z,96540.27
2018-09-12T18:13:49.769Z,96554.31
2018-09-12T18:16:18.348Z,96552.55
2018-09-12T18:18:46.738Z,96557.03
2018-09-12T18:21:15.109Z,96566.42
2018-09-12T18:23:43.564Z,96565.81
2018-09-12T18:26:11.984Z,96573.63
2018-09-12T18:28:40.524Z,96579.28
2018-09-12T18:31:08.939Z,96578.36
2018-09-12T18:33:37.317Z,96586.98
2018-09-12T18:36:05.761Z,96589.69
2018-09-12T18:38:34.317Z,96594.53
2018-09-12T18:41:02.771Z,96598.28
2018-09-12T18:43:31.128Z,96595.18
2018-09-12T18:45:59.548Z,96596.45
2018-09-12T18:48:28.064Z,96601.84
2018-09-12T18:50:56.476Z,96606.47
2018-09-12T18:53:24.907Z,96606.78
2018-09-12T18:55:53.329Z,96600.81
2018-09-12T18:58:21.821Z,96605.38
2018-09-12T19:00:50.196Z,96600.80
2018-09-12T19:03:18.569Z,96595.96
2018-09-12T19:05:46.914Z,96595.72
2018-09-12T19:08:15.284Z,96599.48
2018-09-12T19:10:44.240Z,96603.23
2018-09-12T19:13:12.709Z,96603.73
2018-09-12T19:15:41.091Z,96598.74
2018-09-12T19:18:09.653Z,96608.02
2018-09-12T19:20:38.065Z,96609.09
2018-09-12T19:23:06.440Z,96599.27
2018-09-12T19:25:34.796Z,96600.74
2018-09-12T19:28:03.255Z,96599.55
2018-09-12T19:30:31.615Z,96600.30
2018-09-12T19:32:59.988Z,96610.68
2018-09-12T19:35:28.363Z,96611.40
2018-09-12T19:37:56.757Z,96613.61
2018-09-12T19:40:25.119Z,96616.52
2018-09-12T19:42:53.468Z,96621.08
2018-09-12T19:45:21.841Z,96622.44
2018-09-12T19:47:50.189Z,96621.49
2018-09-12T19:50:18.613Z,96621.83
2018-09-12T19:52:47.099Z,96617.55
2018-09-12T19:55:15.525Z,96622.81
2018-09-12T19:57:43.928Z,96625.34
2018-09-12T20:00:14.898Z,96624.56
2018-09-12T20:02:44.273Z,96624.56
2018-09-12T20:05:12.794Z,96628.07
2018-09-12T20:07:41.246Z,96630.98
2018-09-12T20:10:09.777Z,96629.05
2018-09-12T20:12:38.312Z,96632.47
2018-09-12T20:15:06.860Z,96628.66
2018-09-12T20:17:35.307Z,96622.75
2018-09-12T20:20:03.739Z,96617.11
2018-09-12T20:22:32.235Z,96618.25
2018-09-12T20:25:00.593Z,96613.73
2018-09-12T20:27:28.975Z,96612.64
2018-09-12T20:29:57.446Z,96618.11
2018-09-12T20:32:25.857Z,96616.77
2018-09-12T20:34:54.204Z,96608.09
2018-09-12T20:37:22.620Z,96603.46
2018-09-12T20:39:51.036Z,96607.21
2018-09-12T20:42:19.386Z,96605.05
2018-09-12T20:44:47.860Z,96609.34
2018-09-12T20:47:16.284Z,96614.44
2018-09-12T20:49:44.639Z,96621.16
2018-09-12T20:52:13.143Z,96618.32
2018-09-12T20:54:41.503Z,96611.81
2018-09-12T20:57:09.875Z,96616.94
2018-09-12T20:59:38.426Z,96615.55
2018-09-12T21:02:07.198Z,96611.00
2018-09-12T21:04:35.564Z,96612.38
2018-09-12T21:07:04.405Z,96611.00
2018-09-12T21:09:32.818Z,96616.94
2018-09-12T21:12:01.212Z,96608.80
2018-09-12T21:14:30.011Z,96612.89
2018-09-12T21:16:58.443Z,96610.78
2018-09-12T21:19:26.785Z,96607.91
2018-09-12T21:21:55.199Z,96608.14
2018-09-12T21:24:24.260Z,96601.41
2018-09-12T21:26:52.594Z,96599.70
2018-09-12T21:29:21.024Z,96596.59
2018-09-12T21:31:49.460Z,96598.33
2018-09-12T21:34:17.832Z,96593.36
2018-09-12T21:36:46.521Z,96595.14
2018-09-12T21:39:14.924Z,96594.67
2018-09-12T21:41:43.300Z,96598.83
2018-09-12T21:44:11.711Z,96598.59
2018-09-12T21:46:40.166Z,96597.08
2018-09-12T21:49:08.513Z,96592.61
2018-09-12T21:51:38.009Z,96596.03
2018-09-12T21:54:06.499Z,96597.20
2018-09-12T21:56:35.388Z,96591.42
2018-09-12T21:59:03.880Z,96588.60
2018-09-12T22:01:32.264Z,96592.83
2018-09-12T22:04:00.626Z,96586.09
2018-09-12T22:06:29.072Z,96592.52
2018-09-12T22:08:57.424Z,96595.22
2018-09-12T22:11:25.868Z,96582.28
2018-09-12T22:13:54.492Z,96578.82
2018-09-12T22:16:22.831Z,96582.17
2018-09-12T22:18:51.212Z,96582.27
2018-09-12T22:21:19.741Z,96578.63
2018-09-12T22:23:48.263Z,96580.40
2018-09-12T22:26:16.652Z,96579.86
2018-09-12T22:28:45.222Z,96578.74
2018-09-12T22:31:13.564Z,96573.23
2018-09-12T22:33:41.881Z,96576.77
2018-09-12T22:36:10.313Z,96571.19
2018-09-12T22:38:38.637Z,96563.50
2018-09-12T22:41:07.020Z,96560.81
2018-09-12T22:43:35.447Z,96553.48
2018-09-12T22:46:03.896Z,96558.30
2018-09-12T22:48:32.398Z,96556.95
2018-09-12T22:51:01.048Z,96547.29
2018-09-12T22:53:29.528Z,96546.22
2018-09-12T22:55:58.272Z,96541.06
2018-09-12T22:58:26.756Z,96543.17
2018-09-12T23:00:55.184Z,96539.05
2018-09-12T23:03:23.567Z,96542.78
2018-09-12T23:05:52.348Z,96536.81
2018-09-12T23:08:20.716Z,96535.11
2018-09-12T23:10:49.104Z,96536.77
2018-09-12T23:13:17.519Z,96526.22
2018-09-12T23:15:45.855Z,96527.22
2018-09-12T23:18:14.328Z,96521.59
2018-09-12T23:20:42.726Z,96526.03
2018-09-12T23:23:11.085Z,96529.89
2018-09-12T23:25:39.464Z,96527.27
2018-09-12T23:28:07.864Z,96528.54
2018-09-12T23:30:36.196Z,96523.91
2018-09-12T23:33:04.614Z,96524.15
2018-09-12T23:35:33.016Z,96522.41
2018-09-12T23:38:01.364Z,96523.70
2018-09-12T23:40:29.812Z,96524.41
2018-09-12T23:42:58.376Z,96523.59
2018-09-12T23:45:26.788Z,96514.58
2018-09-12T23:47:55.194Z,96514.34
2018-09-12T23:50:23.746Z,96510.19
2018-09-12T23:52:52.142Z,96507.22
2018-09-12T23:55:20.668Z,96508.56
2018-09-12T23:57:49.308Z,96502.64
